Time;durP1;ratioP1;P1;durP2;ratioP2;P2;SDS_P1;SDS_P2;PMS_P1;PMS_P2;Temp;Humidity;BMP_temperature;BMP_pressure;BME280_temperature;BME280_humidity;BME280_pressure;Samples;Min_cycle;Max_cycle;Signal;HPM_P1;HPM_P2
2021/11/16 00:01:14;;;;;;;55.00;24.35;;;;;;;5.84;80.71;102627.41;5053289;28;20028;-69
2021/11/16 00:03:39;;;;;;;60.88;24.38;;;;;;;5.77;80.88;102623.66;5053320;28;20029;-69
2021/11/16 00:06:05;;;;;;;62.30;24.98;;;;;;;5.82;80.84;102622.41;5053402;28;20086;-70
2021/11/16 00:08:31;;;;;;;65.70;26.10;;;;;;;5.93;80.94;102623.34;5053530;28;20032;-67
2021/11/16 00:10:56;;;;;;;64.38;25.13;;;;;;;6.04;79.90;102610.59;5053278;28;20054;-69
2021/11/16 00:13:22;;;;;;;64.50;25.65;;;;;;;6.07;80.13;102612.94;5031928;28;20049;-69
2021/11/16 00:15:47;;;;;;;56.70;24.30;;;;;;;6.11;80.25;102601.53;5033327;28;20025;-68
2021/11/16 00:18:16;;;;;;;62.40;24.85;;;;;;;6.07;79.09;102605.25;5031870;28;20028;-69
2021/11/16 00:20:44;;;;;;;62.40;25.17;;;;;;;6.17;80.16;102607.97;5032788;28;20391;-68
2021/11/16 00:23:18;;;;;;;64.15;26.15;;;;;;;5.97;80.53;102604.28;5031784;28;20026;-68
2021/11/16 00:25:47;;;;;;;62.30;25.60;;;;;;;6.04;80.29;102587.50;5034827;28;20032;-69
2021/11/16 00:28:13;;;;;;;67.00;26.45;;;;;;;6.01;80.24;102590.28;5037285;28;20018;-69
2021/11/16 00:30:40;;;;;;;61.28;24.33;;;;;;;5.82;80.66;102599.31;5037280;28;20030;-69
2021/11/16 00:33:06;;;;;;;62.42;25.67;;;;;;;5.62;80.68;102598.19;5037129;28;20032;-69
2021/11/16 00:35:31;;;;;;;68.20;26.63;;;;;;;5.57;81.08;102590.00;5037675;28;20033;-69
2021/11/16 00:37:57;;;;;;;59.55;24.58;;;;;;;5.65;80.70;102590.25;5037119;28;20021;-68
2021/11/16 00:40:23;;;;;;;63.45;25.40;;;;;;;5.54;81.59;102590.22;5037256;28;20030;-68
2021/11/16 00:42:50;;;;;;;61.53;24.02;;;;;;;5.89;79.44;102586.84;5036973;28;20017;-68
2021/11/16 00:45:16;;;;;;;56.03;24.42;;;;;;;5.72;79.72;102595.75;5036944;28;20026;-68
2021/11/16 00:47:42;;;;;;;60.40;24.20;;;;;;;5.78;79.81;102595.34;5036903;28;20150;-68
2021/11/16 00:50:09;;;;;;;63.80;24.75;;;;;;;5.64;80.59;102585.25;5036863;28;20025;-68
2021/11/16 00:52:34;;;;;;;61.00;24.20;;;;;;;5.78;79.75;102582.53;5037395;28;20108;-68
2021/11/16 00:54:59;;;;;;;56.92;24.77;;;;;;;5.62;80.06;102581.97;5035423;28;20093;-70
2021/11/16 00:57:25;;;;;;;62.38;25.08;;;;;;;5.77;80.08;102585.19;5037017;28;20025;-69
2021/11/16 00:59:51;;;;;;;69.00;25.70;;;;;;;5.77;79.93;102588.56;5035354;28;20037;-69
2021/11/16 01:02:16;;;;;;;65.22;25.60;;;;;;;5.71;80.33;102588.19;5035441;28;20025;-70
2021/11/16 01:04:49;;;;;;;59.50;24.80;;;;;;;5.76;80.43;102589.50;5036640;28;20105;-69
2021/11/16 01:07:16;;;;;;;57.80;24.50;;;;;;;5.70;80.52;102578.84;5036655;28;20018;-69
2021/11/16 01:09:42;;;;;;;57.83;24.13;;;;;;;5.79;80.78;102583.34;5035216;28;20434;-69
2021/11/16 01:12:08;;;;;;;57.65;24.15;;;;;;;5.87;80.58;102578.47;5036435;28;20021;-68
2021/11/16 01:14:33;;;;;;;58.65;23.27;;;;;;;5.45;81.28;102578.06;5055202;28;20041;-68
2021/11/16 01:16:59;;;;;;;58.03;24.60;;;;;;;5.66;80.91;102578.25;5056262;28;20063;-69
2021/11/16 01:19:25;;;;;;;62.15;25.27;;;;;;;5.84;80.12;102576.94;5056201;28;20493;-68
2021/11/16 01:21:50;;;;;;;59.80;25.10;;;;;;;5.89;80.08;102569.69;5056245;28;20052;-68
2021/11/16 01:24:17;;;;;;;61.50;26.13;;;;;;;5.91;80.49;102574.72;5056216;28;20039;-68
2021/11/16 01:26:45;;;;;;;61.55;24.48;;;;;;;5.85;81.05;102586.25;5056142;28;20029;-69
2021/11/16 01:29:10;;;;;;;62.05;24.92;;;;;;;6.02;80.13;102574.78;5056076;28;20066;-69
2021/11/16 01:31:36;;;;;;;56.53;24.45;;;;;;;5.85;80.72;102581.13;5038181;28;20036;-69
2021/11/16 01:34:02;;;;;;;61.33;25.13;;;;;;;5.91;80.10;102566.22;5056097;28;20024;-69
2021/11/16 01:36:28;;;;;;;57.40;23.60;;;;;;;5.86;80.01;102572.50;5055782;28;20486;-69
2021/11/16 01:38:59;;;;;;;60.03;24.63;;;;;;;5.97;79.97;102570.94;5055796;28;20029;-69
2021/11/16 01:41:26;;;;;;;59.28;24.63;;;;;;;5.87;79.60;102569.00;5056228;28;20430;-69
2021/11/16 01:43:51;;;;;;;56.30;23.45;;;;;;;5.87;79.85;102563.06;5037743;28;20025;-69
2021/11/16 01:46:18;;;;;;;56.50;23.30;;;;;;;5.99;79.77;102567.31;5037689;28;20025;-69
2021/11/16 01:48:48;;;;;;;55.55;24.77;;;;;;;6.09;79.02;102567.44;5055536;28;20464;-69
2021/11/16 01:51:15;;;;;;;58.47;24.77;;;;;;;6.09;78.71;102567.44;5055495;28;20017;-69
2021/11/16 01:53:41;;;;;;;57.55;24.27;;;;;;;6.05;79.11;102561.72;5037514;28;20111;-69
2021/11/16 01:56:07;;;;;;;58.95;25.02;;;;;;;6.07;78.75;102556.47;5055591;28;20059;-69
2021/11/16 01:58:32;;;;;;;62.65;25.85;;;;;;;5.94;79.43;102541.19;5055472;28;20086;-69
2021/11/16 02:00:58;;;;;;;58.90;25.50;;;;;;;5.98;78.74;102557.16;5037318;28;20029;-69
2021/11/16 02:03:24;;;;;;;62.42;24.48;;;;;;;5.85;79.75;102550.34;5055289;28;20028;-69
2021/11/16 02:05:52;;;;;;;60.75;25.33;;;;;;;5.97;79.37;102551.22;5055789;28;20367;-69
2021/11/16 02:08:19;;;;;;;61.35;25.30;;;;;;;6.09;80.07;102552.88;5055181;28;20025;-69
2021/11/16 02:10:46;;;;;;;60.53;25.13;;;;;;;6.02;79.46;102546.56;5055166;28;20357;-69
2021/11/16 02:13:13;;;;;;;61.13;24.95;;;;;;;5.87;79.60;102545.91;5055062;28;20071;-69
2021/11/16 02:15:38;;;;;;;57.88;24.40;;;;;;;5.85;79.71;102545.22;5055133;28;20052;-69
2021/11/16 02:18:10;;;;;;;60.75;26.30;;;;;;;5.83;80.08;102544.50;5055060;28;20032;-69
2021/11/16 02:20:37;;;;;;;61.08;24.75;;;;;;;5.88;79.17;102539.84;5055318;28;20021;-69
2021/11/16 02:23:04;;;;;;;59.60;25.15;;;;;;;5.93;79.60;102536.97;5037096;28;20063;-69
2021/11/16 02:25:29;;;;;;;57.15;24.60;;;;;;;6.01;79.62;102541.53;5055313;28;20032;-69
2021/11/16 02:27:54;;;;;;;59.50;24.35;;;;;;;6.02;79.04;102535.50;5055320;28;20029;-69
2021/11/16 02:30:21;;;;;;;57.25;23.67;;;;;;;6.08;78.92;102535.03;5037328;28;20067;-69
2021/11/16 02:32:47;;;;;;;57.67;24.48;;;;;;;5.90;79.22;102519.22;5054851;28;20021;-69
2021/11/16 02:35:17;;;;;;;57.90;24.02;;;;;;;5.82;79.64;102524.91;5054825;28;20029;-69
2021/11/16 02:37:43;;;;;;;62.50;25.45;;;;;;;6.00;80.04;102524.50;5036881;28;20078;-69
2021/11/16 02:40:09;;;;;;;59.05;25.00;;;;;;;6.02;79.10;102514.97;5036782;28;20025;-69
2021/11/16 02:42:35;;;;;;;59.47;24.95;;;;;;;5.67;80.03;102520.91;5054947;28;20087;-69
2021/11/16 02:45:01;;;;;;;58.33;25.75;;;;;;;5.78;80.02;102523.50;5036691;28;20029;-69
2021/11/16 02:47:27;;;;;;;61.67;25.80;;;;;;;5.87;79.17;102514.31;5036651;28;20040;-69
2021/11/16 02:49:54;;;;;;;61.17;24.45;;;;;;;5.74;80.21;102519.53;5054123;28;20055;-69
2021/11/16 02:52:20;;;;;;;61.38;25.60;;;;;;;5.81;80.12;102512.19;5054504;28;20079;-69
2021/11/16 02:54:45;;;;;;;57.33;24.27;;;;;;;5.84;79.97;102523.06;5054381;28;20032;-69
2021/11/16 02:57:12;;;;;;;58.40;24.85;;;;;;;5.94;79.47;102517.28;5036554;28;20059;-69
2021/11/16 02:59:38;;;;;;;62.40;25.17;;;;;;;5.88;79.19;102519.31;5036392;28;20052;-69
2021/11/16 03:02:04;;;;;;;66.43;25.17;;;;;;;5.98;79.33;102523.78;5054292;28;20028;-69
2021/11/16 03:04:33;;;;;;;62.15;25.35;;;;;;;5.87;80.16;102519.44;5054299;28;20021;-69
2021/11/16 03:07:00;;;;;;;62.83;26.02;;;;;;;5.91;80.20;102513.16;5054730;28;20027;-69
2021/11/16 03:09:29;;;;;;;63.17;24.70;;;;;;;5.83;79.96;102515.47;5054191;28;20017;-69
2021/11/16 03:11:54;;;;;;;63.85;24.85;;;;;;;5.92;79.80;102508.81;5054175;28;20495;-69
2021/11/16 03:14:20;;;;;;;59.85;23.95;;;;;;;5.99;80.75;102518.56;5036133;28;20135;-69
2021/11/16 03:16:47;;;;;;;61.55;25.70;;;;;;;6.06;79.29;102521.47;5054060;28;20468;-69
2021/11/16 03:19:12;;;;;;;65.65;26.17;;;;;;;6.05;79.64;102517.28;5053961;28;20471;-69
2021/11/16 03:21:42;;;;;;;59.33;24.83;;;;;;;6.01;79.55;102519.28;5054264;28;20113;-69
2021/11/16 03:24:08;;;;;;;62.47;26.08;;;;;;;5.92;80.24;102514.78;5054017;28;20052;-69
2021/11/16 03:26:33;;;;;;;56.25;24.50;;;;;;;5.92;78.93;102514.78;5036847;28;20028;-69
2021/11/16 03:29:00;;;;;;;58.38;24.58;;;;;;;5.90;80.14;102516.66;5053812;28;20082;-69
2021/11/16 03:31:41;;;;;;;59.90;24.95;;;;;;;5.72;79.99;102518.81;5035907;28;20044;-69
2021/11/16 03:34:07;;;;;;;66.85;25.15;;;;;;;5.77;80.16;102511.59;5036010;28;20029;-69
2021/11/16 03:36:33;;;;;;;64.03;24.67;;;;;;;5.94;79.58;102504.44;5054035;28;20104;-69
2021/11/16 03:39:01;;;;;;;66.40;25.58;;;;;;;6.10;78.43;102507.50;5053643;28;20031;-69
2021/11/16 03:41:28;;;;;;;62.10;24.80;;;;;;;6.02;80.04;102514.97;5053957;28;20025;-70
2021/11/16 03:43:54;;;;;;;60.95;25.45;;;;;;;5.94;79.24;102515.50;5053601;28;20360;-69
2021/11/16 03:46:20;;;;;;;60.53;25.70;;;;;;;6.00;79.43;102509.13;5035674;28;20035;-69
2021/11/16 03:48:46;;;;;;;67.38;26.00;;;;;;;5.96;78.81;102512.84;5053513;28;20029;-69
2021/11/16 03:51:11;;;;;;;60.10;25.27;;;;;;;5.79;78.82;102511.50;5053331;28;20021;-69
2021/11/16 03:53:38;;;;;;;60.22;25.27;;;;;;;5.73;79.30;102507.63;5053401;28;20025;-69
2021/11/16 03:56:03;;;;;;;58.03;24.83;;;;;;;5.79;79.49;102509.75;5053512;28;20450;-69
2021/11/16 03:58:29;;;;;;;61.80;26.20;;;;;;;5.82;79.57;102516.41;5053388;28;20048;-69
2021/11/16 04:01:00;;;;;;;59.35;24.33;;;;;;;5.77;79.22;102521.84;5034606;28;20017;-69
2021/11/16 04:03:29;;;;;;;60.13;24.92;;;;;;;5.81;79.43;102523.28;5053378;28;20468;-69
2021/11/16 04:05:55;;;;;;;61.40;23.67;;;;;;;5.74;79.45;102522.09;5053357;28;20066;-69
2021/11/16 04:08:20;;;;;;;58.22;24.73;;;;;;;5.60;78.44;102506.88;5035649;28;20033;-69
2021/11/16 04:10:47;;;;;;;57.60;23.67;;;;;;;5.65;80.40;102507.38;5053281;28;20020;-69
2021/11/16 04:13:12;;;;;;;58.20;24.55;;;;;;;5.67;81.23;102518.34;5053060;28;20052;-69
2021/11/16 04:15:39;;;;;;;62.45;24.38;;;;;;;5.60;79.20;102514.56;5053250;28;20468;-69
2021/11/16 04:18:04;;;;;;;56.20;24.88;;;;;;;5.75;79.65;102526.28;5053136;28;20434;-69
2021/11/16 04:20:33;;;;;;;61.53;23.88;;;;;;;5.73;78.49;102523.03;5053132;28;20017;-69
2021/11/16 04:23:01;;;;;;;58.42;23.15;;;;;;;5.69;78.61;102523.34;5053135;28;20075;-69
2021/11/16 04:25:27;;;;;;;65.13;25.60;;;;;;;5.72;78.84;102518.81;5053146;28;20357;-69
2021/11/16 04:27:53;;;;;;;60.00;24.00;;;;;;;5.58;79.44;102519.00;5053134;28;20108;-69
2021/11/16 04:30:21;;;;;;;66.25;24.65;;;;;;;5.68;79.63;102525.09;5053074;28;20057;-69
2021/11/16 04:32:47;;;;;;;59.85;24.75;;;;;;;5.80;78.95;102526.75;5053074;28;20072;-69
2021/11/16 04:35:15;;;;;;;60.90;24.85;;;;;;;5.76;78.81;102520.22;5053559;28;20051;-69
2021/11/16 04:37:43;;;;;;;61.13;24.95;;;;;;;5.79;79.54;102525.13;5053034;28;20357;-69
2021/11/16 04:40:11;;;;;;;62.63;25.27;;;;;;;5.92;77.91;102526.78;5035089;28;20026;-69
2021/11/16 04:42:37;;;;;;;60.20;24.42;;;;;;;5.90;78.15;102524.34;5052991;28;20079;-69
2021/11/16 04:45:05;;;;;;;60.33;23.80;;;;;;;5.84;79.60;102522.22;5035000;28;20025;-69
2021/11/16 04:47:42;;;;;;;59.97;24.00;;;;;;;5.76;80.29;102514.28;5035107;28;20036;-68
2021/11/16 04:50:11;;;;;;;61.17;24.50;;;;;;;5.91;79.60;102508.00;5034994;28;20021;-69
2021/11/16 05:03:23;;;;;;;57.33;23.58;;;;;;;5.79;81.31;102516.63;5053411;28;20433;-69
2021/11/16 05:05:49;;;;;;;59.05;24.33;;;;;;;5.83;81.29;102513.69;5034870;28;20072;-69
2021/11/16 05:08:15;;;;;;;62.58;24.75;;;;;;;5.92;80.46;102511.41;5052879;28;20387;-69
2021/11/16 05:10:41;;;;;;;65.72;25.77;;;;;;;5.99;79.70;102516.00;5052750;28;20090;-69
2021/11/16 05:13:06;;;;;;;63.55;25.38;;;;;;;5.98;80.17;102506.66;5037932;28;20139;-69
2021/11/16 05:15:34;;;;;;;61.78;25.38;;;;;;;5.89;80.21;102497.03;5056405;28;20430;-69
2021/11/16 05:17:59;;;;;;;61.45;25.50;;;;;;;6.01;80.46;102506.44;5056300;28;20033;-69
2021/11/16 05:20:24;;;;;;;64.53;25.10;;;;;;;5.97;80.07;102496.50;5056234;28;20043;-70
2021/11/16 05:22:53;;;;;;;63.78;25.92;;;;;;;5.96;80.12;102502.59;5038384;28;20060;-70
2021/11/16 05:25:18;;;;;;;62.53;24.88;;;;;;;5.98;79.39;102504.06;5038226;28;20075;-68
2021/11/16 05:27:44;;;;;;;68.97;25.88;;;;;;;5.93;79.67;102495.94;5056073;28;20462;-68
2021/11/16 05:30:12;;;;;;;62.80;24.65;;;;;;;5.76;79.22;102496.34;5056068;28;20013;-68
2021/11/16 05:32:38;;;;;;;60.85;24.30;;;;;;;5.50;79.81;102499.06;5038295;28;20024;-68
2021/11/16 05:35:06;;;;;;;61.50;24.88;;;;;;;5.65;80.12;102497.13;5055934;28;20383;-68
2021/11/16 05:37:32;;;;;;;63.60;23.85;;;;;;;5.70;78.78;102500.16;5037986;28;20471;-68
2021/11/16 05:39:57;;;;;;;59.65;24.52;;;;;;;5.71;78.52;102499.22;5055829;28;20025;-69
2021/11/16 05:42:23;;;;;;;61.67;24.98;;;;;;;5.68;79.21;102485.81;5056108;28;20048;-68
2021/11/16 05:44:49;;;;;;;66.28;25.15;;;;;;;5.75;79.41;102494.69;5056347;28;20095;-68
2021/11/16 05:47:14;;;;;;;62.70;23.65;;;;;;;5.82;79.09;102486.41;5055826;28;20024;-69
2021/11/16 05:49:40;;;;;;;59.88;24.15;;;;;;;5.83;78.62;102485.47;5055963;28;20029;-69
2021/11/16 05:52:06;;;;;;;62.50;25.23;;;;;;;5.69;79.40;102480.56;5055616;28;20479;-68
2021/11/16 05:54:34;;;;;;;60.90;23.63;;;;;;;5.74;79.35;102488.72;5055607;28;20029;-70
2021/11/16 05:57:06;;;;;;;62.53;24.55;;;;;;;5.59;79.12;102498.38;5055534;28;20024;-68
2021/11/16 05:59:35;;;;;;;68.10;24.95;;;;;;;5.60;79.67;102486.38;5055828;28;20033;-68
2021/11/16 06:02:05;;;;;;;64.93;25.27;;;;;;;5.66;80.06;102491.84;5055479;28;20032;-69
2021/11/16 06:04:31;;;;;;;64.88;25.25;;;;;;;5.76;80.02;102494.56;5055505;28;20051;-68
2021/11/16 06:06:58;;;;;;;64.85;25.45;;;;;;;5.89;79.92;102497.84;5055468;28;20044;-68
2021/11/16 06:09:26;;;;;;;61.97;23.77;;;;;;;5.81;78.49;102497.63;5037466;28;20032;-69
2021/11/16 06:11:52;;;;;;;63.60;24.63;;;;;;;5.70;78.81;102495.03;5055329;28;20032;-68
2021/11/16 06:14:18;;;;;;;62.88;24.40;;;;;;;5.73;78.55;102494.00;5055145;28;20107;-68
2021/11/16 06:16:43;;;;;;;61.85;24.17;;;;;;;5.64;78.69;102495.50;5055405;28;20033;-68
2021/11/16 06:19:08;;;;;;;63.40;24.17;;;;;;;5.70;79.51;102492.47;5037463;28;20476;-68
2021/11/16 06:21:34;;;;;;;62.90;25.90;;;;;;;5.83;78.82;102488.03;5055123;28;20021;-68
2021/11/16 06:23:59;;;;;;;60.10;24.35;;;;;;;5.78;78.45;102490.16;5054117;28;20025;-68
2021/11/16 06:26:27;;;;;;;63.70;23.45;;;;;;;5.85;78.52;102483.63;5054992;28;20047;-68
2021/11/16 06:28:52;;;;;;;61.05;23.95;;;;;;;5.84;78.89;102470.91;5037043;28;20112;-68
2021/11/16 06:31:20;;;;;;;57.45;24.08;;;;;;;5.88;79.07;102490.28;5054971;28;20105;-69
2021/11/16 06:33:47;;;;;;;60.28;24.10;;;;;;;5.84;80.27;102494.84;5037018;28;20035;-69
2021/11/16 06:36:13;;;;;;;61.53;24.08;;;;;;;5.89;80.62;102489.34;5055331;28;20107;-69
2021/11/16 06:38:38;;;;;;;63.75;24.35;;;;;;;5.97;78.78;102486.25;5054762;28;20056;-69
2021/11/16 06:41:04;;;;;;;67.35;25.92;;;;;;;5.91;79.30;102478.97;5036709;28;20078;-69
2021/11/16 06:43:32;;;;;;;67.82;25.60;;;;;;;5.93;79.21;102477.97;5036763;28;20039;-68
2021/11/16 06:46:01;;;;;;;66.07;24.77;;;;;;;5.82;79.64;102477.91;5036699;28;20029;-69
2021/11/16 06:48:27;;;;;;;68.40;26.33;;;;;;;5.82;79.33;102485.63;5054610;28;20127;-68
2021/11/16 06:50:54;;;;;;;59.67;24.00;;;;;;;5.85;79.58;102480.25;5054541;28;20021;-68
2021/11/16 06:53:28;;;;;;;65.35;25.35;;;;;;;5.88;79.33;102477.44;5054389;28;20383;-69
2021/11/16 06:55:54;;;;;;;64.13;25.13;;;;;;;5.79;79.04;102478.97;5054385;28;20024;-69
2021/11/16 06:58:21;;;;;;;61.08;25.10;;;;;;;5.55;80.19;102473.91;5054386;28;20044;-68
2021/11/16 07:00:46;;;;;;;64.68;24.33;;;;;;;5.54;80.33;102479.13;5054335;28;20025;-69
2021/11/16 07:03:20;;;;;;;67.20;25.35;;;;;;;5.74;80.57;102469.97;5054326;28;20032;-68
2021/11/16 07:05:56;;;;;;;68.93;23.67;;;;;;;5.81;80.28;102477.09;5054265;28;20033;-69
2021/11/16 07:08:40;;;;;;;64.05;24.08;;;;;;;5.48;80.92;102479.56;5036336;28;20021;-69
2021/11/16 07:11:14;;;;;;;71.75;25.55;;;;;;;5.58;80.14;102470.25;5054152;28;20025;-69
2021/11/16 07:14:05;;;;;;;65.60;25.85;;;;;;;5.65;79.97;102484.28;5054105;28;20040;-69
2021/11/16 07:16:51;;;;;;;73.95;26.38;;;;;;;5.63;80.03;102474.13;5054020;28;20032;-69
2021/11/16 07:19:17;;;;;;;60.65;23.90;;;;;;;5.74;79.62;102468.22;5053063;28;20033;-69
2021/11/16 07:21:42;;;;;;;66.65;25.08;;;;;;;5.78;79.35;102484.19;5054063;28;20470;-69
2021/11/16 07:24:11;;;;;;;66.88;26.08;;;;;;;5.74;80.10;102486.16;5053886;28;20032;-69
2021/11/16 07:26:41;;;;;;;75.90;26.52;;;;;;;5.80;80.20;102485.72;5036012;28;20091;-69
2021/11/16 07:29:15;;;;;;;63.03;25.75;;;;;;;5.84;79.93;102486.28;5053767;28;20021;-69
2021/11/16 07:31:42;;;;;;;74.65;26.05;;;;;;;5.81;79.46;102481.38;5053883;28;20025;-69
2021/11/16 07:34:16;;;;;;;67.30;25.77;;;;;;;5.86;80.76;102487.81;5053713;28;20056;-69
2021/11/16 07:36:53;;;;;;;68.07;25.25;;;;;;;5.88;80.53;102493.66;5035878;28;20029;-69
2021/11/16 07:39:19;;;;;;;68.40;25.75;;;;;;;5.89;80.29;102489.34;5035777;28;20384;-69
2021/11/16 07:41:44;;;;;;;69.10;25.13;;;;;;;5.82;80.29;102489.00;5035628;28;20025;-69
2021/11/16 07:44:11;;;;;;;66.97;25.00;;;;;;;5.79;80.01;102483.28;5035572;28;20056;-69
2021/11/16 07:46:38;;;;;;;74.15;27.00;;;;;;;5.78;80.04;102486.75;5053611;28;20070;-69
2021/11/16 07:49:04;;;;;;;66.40;26.38;;;;;;;5.91;80.20;102486.69;5053420;28;20089;-69
2021/11/16 07:51:29;;;;;;;72.70;26.15;;;;;;;5.95;79.51;102486.34;5053370;28;20024;-69
2021/11/16 07:53:56;;;;;;;63.10;24.75;;;;;;;5.54;80.35;102482.50;5035514;28;20114;-69
2021/11/16 07:56:24;;;;;;;64.53;25.38;;;;;;;5.56;80.80;102472.16;5053446;28;20024;-69
2021/11/16 07:58:56;;;;;;;73.85;25.70;;;;;;;5.72;79.83;102482.88;5053374;28;20104;-68
2021/11/16 08:01:40;;;;;;;72.22;26.30;;;;;;;5.65;80.71;102477.41;5053341;28;20036;-69
2021/11/16 08:06:52;;;;;;;73.57;25.77;;;;;;;5.79;80.95;102481.53;5053338;28;20508;-69
2021/11/16 08:12:04;;;;;;;67.40;24.90;;;;;;;5.89;78.77;102487.59;5054066;28;20033;-70
2021/11/16 08:14:29;;;;;;;69.03;25.20;;;;;;;5.88;79.53;102480.84;5053114;28;20055;-70
2021/11/16 08:17:01;;;;;;;73.88;25.70;;;;;;;5.47;80.71;102473.63;5035302;28;20479;-69
2021/11/16 08:19:31;;;;;;;69.82;25.95;;;;;;;5.65;81.23;102481.72;5053428;28;20130;-69
2021/11/16 08:22:10;;;;;;;66.40;24.63;;;;;;;5.65;80.01;102482.53;5053452;28;20028;-69
2021/11/16 08:24:37;;;;;;;66.10;25.45;;;;;;;5.20;81.59;102481.56;5053735;28;20032;-69
2021/11/16 08:27:10;;;;;;;62.72;24.67;;;;;;;5.52;81.65;102481.78;5053283;28;20388;-70
2021/11/16 08:29:39;;;;;;;71.70;24.83;;;;;;;5.42;81.32;102481.66;5053186;28;20451;-69
2021/11/16 08:32:10;;;;;;;65.82;24.52;;;;;;;5.45;81.27;102472.91;5053574;28;20035;-68
2021/11/16 08:34:57;;;;;;;67.28;24.27;;;;;;;5.65;80.96;102474.84;5053080;28;20025;-69
2021/11/16 08:37:26;;;;;;;70.88;24.50;;;;;;;5.76;80.85;102475.81;5034738;28;20037;-68
2021/11/16 08:40:01;;;;;;;68.38;25.00;;;;;;;5.95;80.17;102473.50;5052897;28;20029;-69
2021/11/16 08:42:33;;;;;;;67.35;24.30;;;;;;;5.83;79.75;102464.16;5053001;28;20029;-69
2021/11/16 08:45:07;;;;;;;60.67;24.63;;;;;;;5.79;80.00;102473.00;5036172;28;20021;-69
2021/11/16 08:47:40;;;;;;;76.50;26.02;;;;;;;5.62;80.49;102469.94;5038221;28;20082;-69
2021/11/16 08:50:15;;;;;;;66.65;25.02;;;;;;;5.61;81.06;102467.47;5056807;28;20082;-68
2021/11/16 08:52:40;;;;;;;72.68;25.45;;;;;;;5.72;80.59;102454.66;5057371;28;20043;-69
2021/11/16 08:55:10;;;;;;;66.93;24.63;;;;;;;5.71;80.17;102462.50;5057177;28;20024;-68
2021/11/16 08:57:36;;;;;;;64.90;24.52;;;;;;;5.73;80.39;102456.31;5056782;28;20029;-69
2021/11/16 09:00:20;;;;;;;69.88;24.80;;;;;;;5.85;80.60;102452.84;5038677;28;20027;-69
2021/11/16 09:02:46;;;;;;;68.47;24.85;;;;;;;5.55;80.77;102455.94;5056599;28;20028;-69
2021/11/16 09:05:14;;;;;;;58.20;22.88;;;;;;;5.36;81.31;102459.03;5038728;28;20024;-69
2021/11/16 09:07:51;;;;;;;68.00;23.80;;;;;;;5.31;82.02;102453.41;5056931;28;20029;-68
2021/11/16 09:10:17;;;;;;;70.07;25.30;;;;;;;5.40;81.06;102455.28;5038626;28;20021;-70
2021/11/16 09:12:47;;;;;;;67.82;23.70;;;;;;;5.44;81.22;102453.34;5038361;28;20395;-68
2021/11/16 09:15:19;;;;;;;56.40;22.33;;;;;;;5.40;80.47;102451.91;5056233;28;20023;-68
2021/11/16 09:17:45;;;;;;;64.30;23.63;;;;;;;5.62;80.08;102454.56;5038133;28;20116;-68
2021/11/16 09:20:34;;;;;;;63.05;23.15;;;;;;;5.61;80.21;102455.50;5055696;28;20116;-69
2021/11/16 09:23:00;;;;;;;58.03;22.17;;;;;;;5.48;79.85;102434.22;5038207;28;20025;-68
2021/11/16 09:25:35;;;;;;;62.88;23.02;;;;;;;5.72;79.67;102451.28;5055834;28;20029;-68
2021/11/16 09:28:21;;;;;;;60.13;23.10;;;;;;;5.61;80.03;102450.38;5037616;28;20028;-69
2021/11/16 09:30:47;;;;;;;63.80;22.38;;;;;;;5.72;80.41;102446.16;5055652;28;20100;-68
2021/11/16 09:33:19;;;;;;;60.22;22.80;;;;;;;5.61;79.93;102442.66;5055350;28;20493;-68
2021/11/16 09:36:00;;;;;;;66.43;24.00;;;;;;;5.50;80.43;102440.06;5037672;28;20422;-68
2021/11/16 09:38:41;;;;;;;63.83;22.95;;;;;;;5.46;81.23;102437.84;5055450;28;20490;-69
2021/11/16 09:41:07;;;;;;;66.00;24.73;;;;;;;5.42;81.08;102432.94;5036951;28;20128;-68
2021/11/16 09:43:33;;;;;;;63.78;23.60;;;;;;;5.70;81.02;102440.31;5055113;28;20444;-68
2021/11/16 09:46:12;;;;;;;57.72;21.45;;;;;;;5.73;81.30;102445.25;5055144;28;20041;-69
2021/11/16 09:48:39;;;;;;;62.33;22.95;;;;;;;5.57;80.50;102441.25;5055190;28;20029;-69
2021/11/16 09:51:18;;;;;;;62.50;22.70;;;;;;;5.51;80.26;102446.81;5055150;28;20044;-70
2021/11/16 09:53:44;;;;;;;60.35;22.35;;;;;;;5.74;79.58;102432.28;5055101;28;20545;-69
2021/11/16 09:56:20;;;;;;;57.88;22.17;;;;;;;5.72;79.34;102436.72;5055100;28;20028;-69
2021/11/16 09:58:46;;;;;;;59.40;22.33;;;;;;;5.65;79.91;102433.00;5053748;28;20029;-69
2021/11/16 10:01:23;;;;;;;56.03;21.73;;;;;;;5.79;79.60;102437.91;5054943;28;20029;-69
2021/11/16 10:03:52;;;;;;;60.60;21.92;;;;;;;5.79;79.88;102432.78;5054924;28;20036;-69
2021/11/16 10:06:17;;;;;;;57.75;22.15;;;;;;;5.71;80.73;102435.09;5054799;28;20021;-69
2021/11/16 10:08:43;;;;;;;59.25;24.10;;;;;;;5.91;79.76;102437.91;5054686;28;20427;-69
2021/11/16 10:11:09;;;;;;;57.20;22.75;;;;;;;6.01;79.72;102436.31;5054839;28;20843;-69
2021/11/16 10:13:34;;;;;;;63.20;23.00;;;;;;;6.00;78.95;102429.56;5054459;28;20492;-69
2021/11/16 10:16:03;;;;;;;64.43;22.38;;;;;;;5.81;80.16;102419.81;5054752;28;20041;-69
2021/11/16 10:18:31;;;;;;;57.75;22.10;;;;;;;5.79;79.01;102421.72;5054756;28;20456;-68
2021/11/16 10:20:57;;;;;;;56.22;21.20;;;;;;;5.65;79.42;102426.09;5036677;28;20025;-69
2021/11/16 10:23:42;;;;;;;58.88;22.00;;;;;;;5.66;80.89;102430.28;5055493;28;20390;-70
2021/11/16 10:26:09;;;;;;;66.35;23.02;;;;;;;5.83;80.28;102429.03;5054755;28;20025;-69
2021/11/16 10:28:37;;;;;;;65.70;23.40;;;;;;;5.92;79.82;102419.81;5054520;28;20052;-69
2021/11/16 10:31:04;;;;;;;65.15;23.05;;;;;;;6.08;79.61;102419.53;5054426;28;20068;-69
2021/11/16 10:33:39;;;;;;;61.17;24.38;;;;;;;5.93;78.77;102423.22;5054509;28;20021;-69
2021/11/16 10:36:06;;;;;;;62.47;23.10;;;;;;;5.56;80.85;102421.66;5054279;28;20111;-69
2021/11/16 10:38:34;;;;;;;63.58;23.38;;;;;;;5.78;79.99;102417.47;5054271;28;20029;-69
2021/11/16 10:41:02;;;;;;;58.72;23.92;;;;;;;5.54;80.36;102417.56;5054253;28;20032;-69
2021/11/16 10:43:50;;;;;;;71.55;24.13;;;;;;;5.51;81.19;102413.50;5054136;28;20104;-69
2021/11/16 10:46:20;;;;;;;66.97;25.05;;;;;;;5.47;81.31;102408.69;5054253;28;20031;-69
2021/11/16 10:48:50;;;;;;;65.25;24.65;;;;;;;5.80;80.16;102413.06;5054089;28;20029;-69
2021/11/16 10:51:16;;;;;;;63.92;24.13;;;;;;;5.78;79.89;102409.78;5036466;28;20486;-69
2021/11/16 10:53:53;;;;;;;60.90;22.45;;;;;;;5.71;80.77;102401.75;5054128;28;20021;-69
2021/11/16 10:56:23;;;;;;;70.10;24.00;;;;;;;5.81;80.40;102405.25;5054100;28;20084;-69
2021/11/16 10:58:50;;;;;;;65.38;22.63;;;;;;;5.76;80.74;102381.69;5036001;28;20107;-69
2021/11/16 11:04:40;;;;;;;65.15;22.88;;;;;;;5.98;80.55;102396.28;5054309;28;20529;-71
2021/11/16 11:07:13;;;;;;;58.83;23.30;;;;;;;5.99;80.25;102395.38;5053761;28;20036;-70
2021/11/16 11:09:39;;;;;;;60.63;23.20;;;;;;;5.99;78.94;102392.00;5053336;28;20032;-69
2021/11/16 11:12:21;;;;;;;63.47;22.25;;;;;;;5.85;79.51;102390.44;5053938;28;20326;-69
2021/11/16 11:14:46;;;;;;;56.03;22.50;;;;;;;5.96;79.67;102389.66;5053558;28;20146;-70
2021/11/16 11:17:12;;;;;;;68.18;23.65;;;;;;;5.89;79.81;102379.81;5053490;28;20059;-71
2021/11/16 11:19:40;;;;;;;68.05;23.65;;;;;;;5.89;82.16;102381.56;5035475;28;20021;-68
2021/11/16 11:22:16;;;;;;;56.97;23.17;;;;;;;5.88;81.54;102373.06;5053441;28;20021;-68
2021/11/16 11:24:48;;;;;;;62.60;22.85;;;;;;;6.02;80.13;102366.09;5053572;28;20502;-69
2021/11/16 11:29:47;;;;;;;67.22;23.38;;;;;;;5.71;80.08;102357.31;5053342;28;20104;-69
2021/11/16 11:32:16;;;;;;;66.10;23.52;;;;;;;5.72;80.29;102352.06;5053333;28;20029;-69
2021/11/16 11:34:46;;;;;;;63.38;23.27;;;;;;;5.85;78.98;102350.22;5053282;28;20391;-69
2021/11/16 11:37:24;;;;;;;61.90;23.17;;;;;;;5.84;79.49;102353.72;5053220;28;20033;-69
2021/11/16 11:40:00;;;;;;;57.83;21.73;;;;;;;5.89;79.81;102356.72;5035201;28;20025;-69
2021/11/16 11:42:27;;;;;;;67.80;23.15;;;;;;;5.95;79.44;102344.41;5053078;28;20114;-69
2021/11/16 11:45:10;;;;;;;62.40;24.23;;;;;;;5.75;80.24;102345.88;5053181;28;20483;-70